createdAt,value
2023-04-19T00:01:04.350Z,98138.63
2023-04-19T00:03:32.353Z,98138.63
2023-04-19T00:06:00.321Z,98099.53
2023-04-19T00:08:28.104Z,98132.56
2023-04-19T00:10:57.378Z,98134.28
2023-04-19T00:13:25.149Z,98135.06
2023-04-19T00:15:52.873Z,98135.13
2023-04-19T00:18:20.687Z,98139.47
2023-04-19T00:20:48.953Z,98126.28
2023-04-19T00:23:16.784Z,98140.94
2023-04-19T00:25:44.495Z,98134.72
2023-04-19T00:28:13.622Z,98133.75
2023-04-19T00:30:41.550Z,98142.53
2023-04-19T00:33:12.968Z,98137.16
2023-04-19T00:35:41.235Z,98135.31
2023-04-19T00:38:09.157Z,98138.69
2023-04-19T00:40:37.440Z,98099.53
2023-04-19T00:43:05.304Z,98133.38
2023-04-19T00:45:36.349Z,98125.50
2023-04-19T00:48:04.307Z,98117.56
2023-04-19T00:50:32.305Z,98124.53
2023-04-19T00:53:00.127Z,98128.75
2023-04-19T00:55:27.883Z,98118.19
2023-04-19T00:57:55.766Z,98119.09
2023-04-19T01:00:23.766Z,98118.19
2023-04-19T01:02:53.820Z,98119.09
2023-04-19T01:05:21.803Z,98105.22
2023-04-19T01:07:49.574Z,98109.53
2023-04-19T01:10:17.812Z,98105.91
2023-04-19T01:12:45.834Z,98106.78
2023-04-19T01:15:13.616Z,98105.91
2023-04-19T01:17:41.611Z,98111.09
2023-04-19T01:20:12.218Z,98105.91
2023-04-19T01:22:41.312Z,98100.72
2023-04-19T01:25:10.374Z,98099.75
2023-04-19T01:27:38.158Z,98107.50
2023-04-19T01:30:07.226Z,98096.25
2023-04-19T01:32:35.012Z,98101.66
2023-04-19T01:35:02.796Z,98102.50
2023-04-19T01:37:30.586Z,98080.03
2023-04-19T01:39:59.736Z,98085.91
2023-04-19T01:42:27.562Z,98086.84
2023-04-19T01:44:55.279Z,98083.38
2023-04-19T01:47:23.358Z,98080.81
2023-04-19T01:49:51.133Z,98082.53
2023-04-19T01:52:18.888Z,98078.97
2023-04-19T01:54:46.642Z,98083.38
2023-04-19T01:57:16.756Z,98079.81
2023-04-19T01:59:44.481Z,98080.75
2023-04-19T02:02:12.321Z,98073.84
2023-04-19T02:04:40.127Z,98084.34
2023-04-19T02:07:07.982Z,98081.78
2023-04-19T02:09:37.075Z,98089.78
2023-04-19T02:12:05.340Z,98080.09
2023-04-19T02:14:34.480Z,98074.16
2023-04-19T02:17:02.235Z,98066.34
2023-04-19T02:19:30.004Z,98071.28
2023-04-19T02:21:58.123Z,98071.28
2023-04-19T02:24:25.953Z,98069.53
2023-04-19T02:26:53.709Z,98065.06
2023-04-19T02:29:21.524Z,98066.97
2023-04-19T02:31:50.664Z,98061.03
2023-04-19T02:34:18.700Z,98059.09
2023-04-19T02:36:46.451Z,98056.41
2023-04-19T02:39:14.173Z,98061.50
2023-04-19T02:41:42.343Z,98053.78
2023-04-19T02:44:10.102Z,98054.78
2023-04-19T02:46:37.917Z,98058.09
2023-04-19T02:49:07.101Z,98059.94
2023-04-19T02:51:34.873Z,98060.78
2023-04-19T02:54:02.632Z,98059.19
2023-04-19T02:56:30.510Z,98053.03
2023-04-19T02:59:01.646Z,98056.41
2023-04-19T03:01:29.493Z,98052.16
2023-04-19T03:03:57.663Z,98056.69
2023-04-19T03:06:27.057Z,98047.78
2023-04-19T03:08:54.818Z,98053.03
2023-04-19T03:11:22.575Z,98040.81
2023-04-19T03:13:50.364Z,98039.09
2023-04-19T03:16:18.358Z,98040.81
2023-04-19T03:18:48.061Z,98037.25
2023-04-19T03:21:17.196Z,98039.97
2023-04-19T03:23:46.368Z,98030.31
2023-04-19T03:26:14.263Z,98034.72
2023-04-19T03:28:42.059Z,98033.69
2023-04-19T03:31:09.809Z,98035.41
2023-04-19T03:33:37.607Z,98034.47
2023-04-19T03:36:06.082Z,98028.44
2023-04-19T03:38:33.917Z,98033.78
2023-04-19T03:41:03.046Z,98037.16
2023-04-19T03:43:30.804Z,98030.38
2023-04-19T03:45:58.591Z,98028.59
2023-04-19T03:48:26.415Z,98027.81
2023-04-19T03:50:54.210Z,98028.69
2023-04-19T03:53:21.983Z,98020.88
2023-04-19T03:55:49.794Z,98018.09
2023-04-19T03:58:19.085Z,98015.47
2023-04-19T04:00:46.843Z,98019.94
2023-04-19T04:03:14.808Z,98018.19
2023-04-19T04:05:42.957Z,98017.38
2023-04-19T04:08:10.778Z,98015.63
2023-04-19T04:10:38.605Z,98019.16
2023-04-19T04:13:06.393Z,98023.50
2023-04-19T04:15:35.629Z,98025.19
2023-04-19T04:18:03.459Z,98026.91
2023-04-19T04:20:31.678Z,98026.97
2023-04-19T04:22:59.578Z,98030.31
2023-04-19T04:25:28.985Z,98025.97
2023-04-19T04:27:56.806Z,98030.22
2023-04-19T04:30:27.248Z,98030.22
2023-04-19T04:32:58.089Z,98028.59
2023-04-19T04:35:26.151Z,98028.59
2023-04-19T04:37:54.980Z,98036.63
2023-04-19T04:40:23.013Z,98027.88
2023-04-19T04:42:52.979Z,98023.63
2023-04-19T04:45:21.279Z,98020.22
2023-04-19T04:47:49.142Z,98018.75
2023-04-19T04:50:18.411Z,98022.06
2023-04-19T04:52:46.249Z,98009.16
2023-04-19T04:55:14.030Z,98023.94
2023-04-19T04:57:41.736Z,98015.09
2023-04-19T05:00:11.315Z,98017.59
2023-04-19T05:02:39.180Z,98020.16
2023-04-19T05:05:07.727Z,98026.13
2023-04-19T05:07:36.873Z,98019.22
2023-04-19T05:10:04.681Z,98020.00
2023-04-19T05:12:32.424Z,98023.28
2023-04-19T05:15:00.232Z,98032.69
2023-04-19T05:17:29.194Z,98019.50
2023-04-19T05:19:56.972Z,98027.38
2023-04-19T05:22:24.788Z,98027.16
2023-04-19T05:24:54.293Z,98026.22
2023-04-19T05:27:22.019Z,98027.94
2023-04-19T05:29:51.474Z,98020.75
2023-04-19T05:32:19.327Z,98021.53
2023-04-19T05:34:47.115Z,98011.25
2023-04-19T05:37:14.893Z,98021.81
2023-04-19T05:39:44.481Z,98015.78
2023-04-19T05:42:13.949Z,98016.81
2023-04-19T05:44:41.721Z,98023.00
2023-04-19T05:47:09.952Z,98009.13
2023-04-19T05:49:37.760Z,98006.59
2023-04-19T05:52:06.008Z,98010.16
2023-04-19T05:54:36.032Z,98010.22
2023-04-19T05:57:04.035Z,98009.31
2023-04-19T05:59:33.195Z,98009.00
2023-04-19T06:02:01.697Z,98010.72
2023-04-19T06:04:29.828Z,98009.63
2023-04-19T06:06:57.662Z,98005.28
2023-04-19T06:09:25.706Z,98010.41
2023-04-19T06:11:54.753Z,98008.53
2023-04-19T06:14:23.611Z,98012.72
2023-04-19T06:16:52.710Z,98004.41
2023-04-19T06:19:21.260Z,98011.31
2023-04-19T06:21:49.430Z,98011.19
2023-04-19T06:24:17.276Z,98011.03
2023-04-19T06:26:45.092Z,98006.06
2023-04-19T06:29:12.894Z,98001.59
2023-04-19T06:31:40.769Z,98003.44
2023-04-19T06:34:11.185Z,97999.28
2023-04-19T06:36:39.150Z,98012.88
2023-04-19T06:39:06.969Z,98007.69
2023-04-19T06:41:34.759Z,98017.97
2023-04-19T06:44:03.082Z,98019.75
2023-04-19T06:46:30.928Z,98016.66
2023-04-19T06:48:58.715Z,98015.75
2023-04-19T06:51:27.989Z,98009.38
2023-04-19T06:53:55.757Z,98011.81
2023-04-19T06:56:42.011Z,98015.03
2023-04-19T06:59:09.853Z,98014.88
2023-04-19T07:01:37.677Z,98020.97
2023-04-19T07:04:05.933Z,98014.41
2023-04-19T07:06:35.373Z,98011.38
2023-04-19T07:09:03.956Z,98008.41
2023-04-19T07:11:32.119Z,98009.06
2023-04-19T07:14:00.898Z,98005.31
2023-04-19T07:16:29.003Z,98009.06
2023-04-19T07:18:57.229Z,98001.19
2023-04-19T07:21:28.666Z,98004.59
2023-04-19T07:23:57.842Z,97994.41
2023-04-19T07:26:25.654Z,97992.44
2023-04-19T07:28:53.406Z,97991.59
2023-04-19T07:31:21.245Z,97996.69
2023-04-19T07:33:49.067Z,97993.47
2023-04-19T07:36:16.881Z,97991.59
2023-04-19T07:38:44.685Z,97996.69
2023-04-19T07:41:13.887Z,97991.19
2023-04-19T07:43:41.654Z,97996.44
2023-04-19T07:46:12.744Z,97993.47
2023-04-19T07:48:40.678Z,97980.25
2023-04-19T07:51:12.245Z,97968.34
2023-04-19T07:53:41.627Z,97996.81
2023-04-19T07:56:12.187Z,98000.72
2023-04-19T07:58:42.373Z,97985.88
2023-04-19T08:01:11.761Z,97987.75
2023-04-19T08:03:39.903Z,97986.13
2023-04-19T08:06:09.084Z,97959.72
2023-04-19T08:08:37.110Z,97985.59
2023-04-19T08:11:06.124Z,97984.53
2023-04-19T08:13:33.971Z,97989.09
2023-04-19T08:16:40.341Z,97984.25
2023-04-19T08:18:52.093Z,97983.66
2023-04-19T08:21:22.310Z,97980.09
2023-04-19T08:23:54.511Z,97990.63
2023-04-19T08:26:22.829Z,97986.13
2023-04-19T08:28:51.405Z,97980.59
2023-04-19T08:31:21.382Z,97983.16
2023-04-19T08:33:49.167Z,97973.13
2023-04-19T08:36:22.150Z,97975.47
2023-04-19T08:39:01.952Z,97977.31
2023-04-19T08:41:33.455Z,97974.03
2023-04-19T08:44:01.255Z,97942.06
2023-04-19T08:46:32.369Z,97972.16
2023-04-19T08:49:00.910Z,97962.06
2023-04-19T08:51:29.480Z,97973.38
2023-04-19T08:53:57.804Z,97964.63
2023-04-19T08:56:34.852Z,97963.41
2023-04-19T08:59:19.377Z,97967.06
2023-04-19T09:01:49.166Z,97963.19
2023-04-19T09:04:35.536Z,97949.13
2023-04-19T09:07:04.457Z,97947.81
2023-04-19T09:09:38.623Z,97924.81
2023-04-19T09:12:18.724Z,97958.56
2023-04-19T09:15:00.312Z,97941.22
2023-04-19T09:17:31.152Z,97962.00
2023-04-19T09:19:59.506Z,97951.81
2023-04-19T09:22:27.452Z,97959.47
2023-04-19T09:27:30.700Z,97952.84
2023-04-19T09:29:59.725Z,97944.75
2023-04-19T09:32:28.210Z,97942.25
2023-04-19T09:34:58.466Z,97934.28
2023-04-19T09:39:57.283Z,97929.44
2023-04-19T09:42:47.415Z,97921.66
2023-04-19T09:45:29.000Z,97930.53
2023-04-19T09:48:07.442Z,97934.34
2023-04-19T09:50:50.347Z,97921.41
2023-04-19T09:53:24.144Z,97901.53
2023-04-19T09:56:01.273Z,97916.53
2023-04-19T10:01:13.235Z,97913.19
2023-04-19T10:03:43.603Z,97914.66
2023-04-19T10:08:50.729Z,97907.16
2023-04-19T10:11:18.960Z,97902.91
2023-04-19T10:13:47.954Z,97913.63
2023-04-19T10:16:19.692Z,97915.00
2023-04-19T10:18:49.865Z,97894.16
2023-04-19T10:21:20.544Z,97901.56
2023-04-19T10:23:48.629Z,97901.78
2023-04-19T10:26:16.549Z,97893.09
2023-04-19T10:28:44.309Z,97896.59
2023-04-19T10:31:13.877Z,97898.31
2023-04-19T10:33:42.859Z,97892.75
2023-04-19T10:36:11.869Z,97886.75
2023-04-19T10:38:44.415Z,97883.69
2023-04-19T10:41:17.361Z,97876.19
2023-04-19T10:43:47.442Z,97885.59
2023-04-19T10:46:17.344Z,97869.44
2023-04-19T10:48:55.693Z,97883.91
2023-04-19T10:51:25.028Z,97884.16
2023-04-19T10:53:56.523Z,97878.34
2023-04-19T10:57:11.925Z,97871.97
2023-04-19T10:59:42.927Z,97869.56
2023-04-19T11:02:29.150Z,97866.22
2023-04-19T11:05:02.148Z,97860.00
2023-04-19T11:07:29.979Z,97869.56
2023-04-19T11:09:59.291Z,97865.06
2023-04-19T11:12:27.107Z,97863.34
2023-04-19T11:15:00.462Z,97852.44
2023-04-19T11:17:32.038Z,97858.13
2023-04-19T11:20:01.389Z,97852.06
2023-04-19T11:22:33.304Z,97853.25
2023-04-19T11:25:10.417Z,97847.38
2023-04-19T11:27:38.629Z,97847.38
2023-04-19T11:30:08.525Z,97840.63
2023-04-19T11:32:36.856Z,97841.16
2023-04-19T11:35:09.917Z,97841.66
2023-04-19T11:37:39.560Z,97837.03
2023-04-19T11:40:09.982Z,97835.16
2023-04-19T11:42:37.970Z,97849.13
2023-04-19T11:45:13.199Z,97823.63
2023-04-19T11:47:50.285Z,97836.84
2023-04-19T11:50:35.724Z,97826.72
2023-04-19T11:53:16.844Z,97823.88
2023-04-19T11:55:47.328Z,97816.16
2023-04-19T11:58:25.616Z,97818.25
2023-04-19T12:00:53.429Z,97803.78
2023-04-19T12:03:26.559Z,97808.44
2023-04-19T12:05:56.277Z,97795.88
2023-04-19T12:08:34.962Z,97803.13
2023-04-19T12:11:04.841Z,97803.47
2023-04-19T12:13:33.464Z,97804.63
2023-04-19T12:16:01.624Z,97802.00
2023-04-19T12:18:29.603Z,97811.84
2023-04-19T12:20:58.850Z,97803.53
2023-04-19T12:23:27.989Z,97789.19
2023-04-19T12:25:55.717Z,97798.78
2023-04-19T12:28:25.133Z,97794.44
2023-04-19T12:30:53.033Z,97786.38
2023-04-19T12:33:22.788Z,97789.06
2023-04-19T12:35:51.573Z,97781.00
2023-04-19T12:38:19.340Z,97781.38
2023-04-19T12:40:47.221Z,97773.41
2023-04-19T12:43:15.037Z,97772.72
2023-04-19T12:45:44.229Z,97781.03
2023-04-19T12:48:12.180Z,97773.22
2023-04-19T12:50:40.041Z,97782.56
2023-04-19T12:53:09.451Z,97776.03
2023-04-19T12:55:37.278Z,97786.28
2023-04-19T12:58:05.117Z,97763.84
2023-04-19T13:00:32.912Z,97761.84
2023-04-19T13:03:04.596Z,97761.59
2023-04-19T13:05:32.552Z,97764.41
2023-04-19T13:08:00.384Z,97769.91
2023-04-19T13:10:28.412Z,97756.97
2023-04-19T13:12:56.685Z,97738.13
2023-04-19T13:15:24.515Z,97751.78
2023-04-19T13:17:52.292Z,97747.44
2023-04-19T13:20:21.832Z,97741.50
2023-04-19T13:22:49.625Z,97736.94
2023-04-19T13:25:17.421Z,97741.25
2023-04-19T13:27:46.954Z,97741.53
2023-04-19T13:30:15.569Z,97738.38
2023-04-19T13:32:43.402Z,97730.50
2023-04-19T13:35:11.344Z,97721.94
2023-04-19T13:37:42.349Z,97716.94
2023-04-19T13:40:21.176Z,97714.50
2023-04-19T13:42:49.029Z,97719.41
2023-04-19T13:45:16.788Z,97720.94
2023-04-19T13:47:44.600Z,97713.88
2023-04-19T13:50:13.129Z,97704.31
2023-04-19T13:52:42.350Z,97672.81
2023-04-19T13:55:10.699Z,97709.28
2023-04-19T13:57:38.758Z,97709.97
2023-04-19T14:00:08.427Z,97707.63
2023-04-19T14:02:36.630Z,97699.16
2023-04-19T14:05:04.811Z,97694.94
2023-04-19T14:07:32.635Z,97699.03
2023-04-19T14:10:01.857Z,97696.03
2023-04-19T14:12:29.723Z,97684.66
2023-04-19T14:14:57.465Z,97693.09
2023-04-19T14:17:27.738Z,97692.50
2023-04-19T14:19:55.910Z,97684.38
2023-04-19T14:22:23.704Z,97679.19
2023-04-19T14:24:51.711Z,97682.41
2023-04-19T14:27:20.862Z,97688.66
2023-04-19T14:29:48.631Z,97691.41
2023-04-19T14:32:26.020Z,97680.09
2023-04-19T14:34:54.724Z,97675.25
2023-04-19T14:37:23.854Z,97672.38
2023-04-19T14:39:51.712Z,97667.72
2023-04-19T14:42:22.531Z,97671.66
2023-04-19T14:44:52.292Z,97662.25
2023-04-19T14:47:20.370Z,97652.53
2023-04-19T14:49:48.387Z,97661.03
2023-04-19T14:52:16.179Z,97662.84
2023-04-19T14:54:44.018Z,97655.25
2023-04-19T14:57:12.101Z,97658.34
2023-04-19T14:59:41.277Z,97660.72
2023-04-19T15:02:10.685Z,97651.31
2023-04-19T15:04:41.074Z,97661.47
2023-04-19T15:07:09.369Z,97652.19
2023-04-19T15:09:37.154Z,97657.25
2023-04-19T15:12:05.853Z,97657.00
2023-04-19T15:14:33.636Z,97656.03
2023-04-19T15:17:03.392Z,97652.97
2023-04-19T15:19:31.427Z,97650.88
2023-04-19T15:21:59.319Z,97638.38
2023-04-19T15:24:27.115Z,97654.72
2023-04-19T15:26:54.824Z,97657.16
2023-04-19T15:29:22.564Z,97652.88
2023-04-19T15:31:50.411Z,97662.41
2023-04-19T15:34:19.727Z,97653.72
2023-04-19T15:36:47.511Z,97650.78
2023-04-19T15:39:15.499Z,97646.00
2023-04-19T15:41:43.414Z,97662.28
2023-04-19T15:44:11.210Z,97655.38
2023-04-19T15:46:39.037Z,97651.91
2023-04-19T15:49:06.931Z,97655.69
2023-04-19T15:51:36.041Z,97656.09
2023-04-19T15:54:03.883Z,97660.88
2023-04-19T15:56:31.664Z,97663.34
2023-04-19T15:58:59.457Z,97652.72
2023-04-19T16:01:27.302Z,97654.97
2023-04-19T16:03:55.365Z,97653.28
2023-04-19T16:06:23.333Z,97664.06
2023-04-19T16:08:52.522Z,97658.00
2023-04-19T16:11:20.371Z,97670.28
2023-04-19T16:13:48.542Z,97670.06
2023-04-19T16:16:16.401Z,97673.28
2023-04-19T16:18:44.128Z,97662.66
2023-04-19T16:21:11.875Z,97671.38
2023-04-19T16:23:39.606Z,97663.66
2023-04-19T16:26:08.803Z,97668.09
2023-04-19T16:28:36.637Z,97663.56
2023-04-19T16:31:04.409Z,97662.22
2023-04-19T16:33:32.180Z,97673.56
2023-04-19T16:35:59.991Z,97675.88
2023-04-19T16:38:27.744Z,97675.22
2023-04-19T16:41:12.919Z,97669.06
2023-04-19T16:43:42.154Z,97671.44
2023-04-19T16:46:10.949Z,97671.19
2023-04-19T16:48:38.790Z,97666.63
2023-04-19T16:51:06.807Z,97674.56
2023-04-19T16:53:34.557Z,97669.75
2023-04-19T16:56:03.654Z,97666.84
2023-04-19T16:58:31.761Z,97664.53
2023-04-19T17:01:02.222Z,97666.78
2023-04-19T17:03:30.452Z,97663.47
2023-04-19T17:05:58.410Z,97658.09
2023-04-19T17:08:26.674Z,97656.84
2023-04-19T17:10:54.475Z,97661.44
2023-04-19T17:13:23.442Z,97658.16
2023-04-19T17:15:51.290Z,97656.81
2023-04-19T17:18:20.697Z,97667.72
2023-04-19T17:20:48.446Z,97661.66
2023-04-19T17:23:16.342Z,97652.34
2023-04-19T17:25:44.166Z,97663.84
2023-04-19T17:28:11.892Z,97657.78
2023-04-19T17:30:39.792Z,97667.00
2023-04-19T17:33:07.736Z,97670.03
2023-04-19T17:35:37.155Z,97667.00
2023-04-19T17:38:04.873Z,97670.06
2023-04-19T17:40:32.814Z,97660.78
2023-04-19T17:43:00.615Z,97656.50
2023-04-19T17:45:28.384Z,97659.56
2023-04-19T17:47:56.380Z,97662.03
2023-04-19T17:50:24.631Z,97673.22
2023-04-19T17:52:54.651Z,97680.09
2023-04-19T17:55:22.510Z,97677.47
2023-04-19T17:57:50.249Z,97669.63
2023-04-19T18:00:18.554Z,97671.47
2023-04-19T18:02:46.443Z,97675.25
2023-04-19T18:05:15.129Z,97673.03
2023-04-19T18:07:42.898Z,97671.88
2023-04-19T18:10:12.386Z,97678.94
2023-04-19T18:12:40.238Z,97667.81
2023-04-19T18:15:09.227Z,97677.94
2023-04-19T18:17:37.018Z,97665.66
2023-04-19T18:20:06.965Z,97675.47
2023-04-19T18:22:34.883Z,97682.72
2023-04-19T18:25:02.673Z,97677.94
2023-04-19T18:27:32.513Z,97677.56
2023-04-19T18:30:03.144Z,97682.50
2023-04-19T18:32:32.064Z,97676.53
2023-04-19T18:34:59.928Z,97685.22
2023-04-19T18:37:27.682Z,97669.31
2023-04-19T18:39:55.411Z,97675.63
2023-04-19T18:42:23.537Z,97676.94
2023-04-19T18:44:54.550Z,97678.06
2023-04-19T18:47:22.813Z,97679.63
2023-04-19T18:50:03.541Z,97687.06
2023-04-19T18:52:33.333Z,97691.38
2023-04-19T18:55:01.114Z,97694.94
2023-04-19T18:57:30.399Z,97694.94
2023-04-19T19:00:02.484Z,97695.16
2023-04-19T19:02:30.755Z,97703.38
2023-04-19T19:05:02.029Z,97703.03
2023-04-19T19:10:02.506Z,97694.06
2023-04-19T19:12:33.590Z,97705.13
2023-04-19T19:15:02.794Z,97703.53
2023-04-19T19:17:30.646Z,97706.69
2023-04-19T19:19:58.415Z,97710.22
2023-04-19T19:22:28.785Z,97711.28
2023-04-19T19:24:57.343Z,97706.81
2023-04-19T19:27:25.162Z,97714.38
2023-04-19T19:29:52.882Z,97718.97
2023-04-19T19:32:22.135Z,97709.75
2023-04-19T19:34:56.305Z,97707.63
2023-04-19T19:37:29.516Z,97714.91
2023-04-19T19:39:57.231Z,97707.88
2023-04-19T19:42:25.692Z,97712.44
2023-04-19T19:44:55.348Z,97706.69
2023-04-19T19:47:25.133Z,97705.84
2023-04-19T19:50:39.079Z,97704.13
2023-04-19T19:52:42.680Z,97707.53
2023-04-19T19:55:12.472Z,97706.69
2023-04-19T20:00:36.623Z,97705.50
2023-04-19T20:03:01.961Z,97711.16
2023-04-19T20:05:30.274Z,97701.94
2023-04-19T20:08:08.168Z,97708.38
2023-04-19T20:10:36.607Z,97707.13
2023-04-19T20:13:06.190Z,97704.06
2023-04-19T20:15:34.227Z,97711.63
2023-04-19T20:18:03.551Z,97713.47
2023-04-19T20:20:31.349Z,97719.97
2023-04-19T20:22:59.118Z,97711.31
2023-04-19T20:25:27.025Z,97714.88
2023-04-19T20:27:55.262Z,97712.94
2023-04-19T20:30:23.568Z,97711.00
2023-04-19T20:32:51.386Z,97710.25
2023-04-19T20:35:21.158Z,97711.19
2023-04-19T20:37:48.950Z,97713.03
2023-04-19T20:40:16.782Z,97710.66
2023-04-19T20:42:45.370Z,97712.81
2023-04-19T20:45:14.255Z,97672.84
2023-04-19T20:47:42.857Z,97699.34
2023-04-19T20:50:11.352Z,97702.88
2023-04-19T20:52:40.547Z,97706.22
2023-04-19T20:55:09.318Z,97676.53
2023-04-19T20:57:37.088Z,97692.03
2023-04-19T21:00:08.103Z,97695.06
2023-04-19T21:02:36.076Z,97697.22
2023-04-19T21:05:04.022Z,97694.75
2023-04-19T21:07:31.808Z,97688.88
2023-04-19T21:10:01.167Z,97690.19
2023-04-19T21:12:28.980Z,97686.75
2023-04-19T21:14:56.746Z,97691.34
2023-04-19T21:17:24.629Z,97682.97
2023-04-19T21:19:52.404Z,97683.03
2023-04-19T21:22:20.172Z,97683.19
2023-04-19T21:24:47.942Z,97677.25
2023-04-19T21:27:17.073Z,97679.19
2023-04-19T21:29:44.886Z,97675.97
2023-04-19T21:32:12.692Z,97672.56
2023-04-19T21:34:40.483Z,97670.53
2023-04-19T21:37:08.269Z,97666.59
2023-04-19T21:39:36.076Z,97672.69
2023-04-19T21:42:03.857Z,97665.78
2023-04-19T21:44:34.318Z,97663.25
2023-04-19T21:47:02.243Z,97661.78
2023-04-19T21:49:30.061Z,97667.94
2023-04-19T21:51:57.901Z,97657.75
2023-04-19T21:54:33.555Z,97663.13
2023-04-19T21:57:02.328Z,97666.91
2023-04-19T21:59:30.706Z,97663.50
2023-04-19T22:02:00.014Z,97658.63
2023-04-19T22:04:31.065Z,97656.25
2023-04-19T22:07:02.296Z,97652.91
2023-04-19T22:09:31.399Z,97649.56
2023-04-19T22:12:00.303Z,97651.50
2023-04-19T22:14:28.529Z,97646.22
2023-04-19T22:16:56.674Z,97625.09
2023-04-19T22:19:26.055Z,97645.53
2023-04-19T22:21:55.144Z,97654.44
2023-04-19T22:24:23.108Z,97623.75
2023-04-19T22:26:53.129Z,97635.63
2023-04-19T22:29:21.390Z,97633.16
2023-04-19T22:31:49.542Z,97632.38
2023-04-19T22:34:17.386Z,97630.78
2023-04-19T22:36:46.762Z,97617.28
2023-04-19T22:39:15.840Z,97619.09
2023-04-19T22:41:44.121Z,97614.03
2023-04-19T22:44:11.946Z,97611.56
2023-04-19T22:46:40.049Z,97621.09
2023-04-19T22:49:08.597Z,97610.75
2023-04-19T22:51:36.793Z,97605.69
2023-04-19T22:54:06.143Z,97602.28
2023-04-19T22:56:34.338Z,97599.06
2023-04-19T22:59:02.297Z,97595.66
2023-04-19T23:01:30.172Z,97594.25
2023-04-19T23:03:58.283Z,97604.88
2023-04-19T23:06:26.149Z,97589.31
2023-04-19T23:08:53.972Z,97599.91
2023-04-19T23:11:25.208Z,97584.50
2023-04-19T23:13:54.188Z,97583.97
2023-04-19T23:16:22.688Z,97586.84
2023-04-19T23:18:50.584Z,97569.75
2023-04-19T23:21:18.977Z,97573.66
2023-04-19T23:23:46.827Z,97575.41
2023-04-19T23:26:14.703Z,97566.94
2023-04-19T23:28:43.815Z,97570.47
2023-04-19T23:31:12.499Z,97561.84
2023-04-19T23:33:40.445Z,97562.69
2023-04-19T23:36:08.642Z,97550.53
2023-04-19T23:38:36.388Z,97550.53
2023-04-19T23:41:04.461Z,97543.44
2023-04-19T23:43:32.559Z,97545.81
2023-04-19T23:46:01.707Z,97545.88
2023-04-19T23:48:29.744Z,97539.13
2023-04-19T23:50:57.878Z,97538.38
2023-04-19T23:53:26.192Z,97534.06
2023-04-19T23:55:54.321Z,97530.63
2023-04-19T23:58:22.485Z,97524.63
